Time;durP1;ratioP1;P1;durP2;ratioP2;P2;SDS_P1;SDS_P2;PMS_P1;PMS_P2;Temp;Humidity;BMP_temperature;BMP_pressure;BME280_temperature;BME280_humidity;BME280_pressure;Samples;Min_cycle;Max_cycle;Signal;HPM_P1;HPM_P2
2021/12/28 00:00:08;;;;;;;7.30;4.10;;;10.50;99.90;;;;;;2088377;28;20062;-70
2021/12/28 00:01:12;;;;;;;6.03;4.13;;;10.50;99.90;;;;;;2089093;28;20029;-70
2021/12/28 00:02:12;;;;;;;6.45;4.07;;;10.50;99.90;;;;;;2088709;28;20162;-70
2021/12/28 00:03:13;;;;;;;5.18;4.30;;;10.50;99.90;;;;;;2089109;28;20017;-70
2021/12/28 00:04:13;;;;;;;5.32;3.95;;;10.50;99.90;;;;;;2088900;28;20044;-70
2021/12/28 00:05:15;;;;;;;4.00;3.60;;;10.50;99.90;;;;;;2086953;28;20056;-70
2021/12/28 00:06:16;;;;;;;4.63;4.18;;;10.50;99.90;;;;;;2078386;28;20025;-70
2021/12/28 00:07:17;;;;;;;5.20;4.15;;;10.50;99.90;;;;;;2080338;28;20535;-70
2021/12/28 00:08:19;;;;;;;5.47;4.15;;;10.50;99.90;;;;;;2083349;28;20481;-70
2021/12/28 00:09:19;;;;;;;5.63;3.72;;;10.50;99.90;;;;;;2089331;28;20031;-70
2021/12/28 00:10:20;;;;;;;5.68;3.90;;;10.50;99.90;;;;;;2082469;28;20397;-70
2021/12/28 00:11:21;;;;;;;4.60;4.10;;;10.50;99.90;;;;;;2081695;28;20374;-70
2021/12/28 00:12:22;;;;;;;4.68;4.25;;;10.50;99.90;;;;;;2088821;28;20047;-70
2021/12/28 00:13:26;;;;;;;5.45;4.28;;;10.50;99.90;;;;;;2088993;28;20044;-70
2021/12/28 00:14:35;;;;;;;6.07;4.47;;;10.50;99.90;;;;;;2096635;28;20427;-70
2021/12/28 00:15:48;;;;;;;6.63;4.60;;;10.60;99.90;;;;;;2095989;28;20041;-71
2021/12/28 00:18:08;;;;;;;4.50;4.07;;;10.60;99.90;;;;;;2088634;28;20025;-70
2021/12/28 00:19:09;;;;;;;5.97;3.83;;;10.50;99.90;;;;;;2087238;28;20025;-70
2021/12/28 00:20:10;;;;;;;5.88;4.38;;;10.50;99.90;;;;;;2079757;28;20033;-71
2021/12/28 00:21:10;;;;;;;6.47;3.90;;;10.50;99.90;;;;;;2079597;28;20366;-70
2021/12/28 00:22:11;;;;;;;5.18;4.20;;;10.50;99.90;;;;;;2080618;28;20029;-70
2021/12/28 00:23:18;;;;;;;5.63;4.05;;;10.50;99.90;;;;;;2086919;28;20029;-70
2021/12/28 00:24:21;;;;;;;4.82;3.50;;;10.60;99.90;;;;;;2084550;28;20025;-70
2021/12/28 00:25:21;;;;;;;5.25;4.03;;;10.50;99.90;;;;;;2079988;28;20381;-70
2021/12/28 00:26:24;;;;;;;4.47;3.72;;;10.50;99.90;;;;;;2086739;28;20060;-70
2021/12/28 00:27:24;;;;;;;5.63;4.13;;;10.50;99.90;;;;;;2088683;28;20036;-70
2021/12/28 00:28:25;;;;;;;4.20;3.75;;;10.50;99.90;;;;;;2089338;28;20122;-70
2021/12/28 00:29:26;;;;;;;8.60;4.30;;;10.50;99.90;;;;;;2088708;28;20032;-70
2021/12/28 00:30:27;;;;;;;6.47;4.03;;;10.50;99.90;;;;;;2088405;28;20052;-70
2021/12/28 00:31:27;;;;;;;5.28;3.90;;;10.50;99.90;;;;;;2087804;28;20075;-70
2021/12/28 00:32:28;;;;;;;6.22;4.07;;;10.50;99.90;;;;;;2086547;28;20021;-70
2021/12/28 00:33:29;;;;;;;6.40;4.22;;;10.60;99.90;;;;;;2080011;28;20393;-70
2021/12/28 00:34:31;;;;;;;3.92;3.63;;;10.60;99.90;;;;;;2080425;28;20445;-70
2021/12/28 00:35:36;;;;;;;4.80;3.50;;;10.50;99.90;;;;;;2079805;28;20063;-70
2021/12/28 00:36:37;;;;;;;5.18;3.70;;;10.50;99.90;;;;;;2080115;28;20112;-70
2021/12/28 00:37:37;;;;;;;4.43;3.58;;;10.50;99.90;;;;;;2080065;28;20556;-70
2021/12/28 00:38:38;;;;;;;5.53;3.80;;;10.50;99.90;;;;;;2080637;28;20025;-70
2021/12/28 00:39:39;;;;;;;6.28;3.97;;;10.50;99.90;;;;;;2080201;28;20037;-70
2021/12/28 00:40:40;;;;;;;3.95;3.45;;;10.50;99.90;;;;;;2080299;28;20025;-70
2021/12/28 00:41:40;;;;;;;4.78;3.60;;;10.50;99.90;;;;;;2080257;28;20366;-70
2021/12/28 00:42:41;;;;;;;7.15;3.88;;;10.60;99.90;;;;;;2086798;28;20031;-70
2021/12/28 00:43:42;;;;;;;5.25;3.30;;;10.50;99.90;;;;;;2077949;28;20154;-70
2021/12/28 00:44:43;;;;;;;3.95;3.40;;;10.60;99.90;;;;;;2079860;28;20481;-70
2021/12/28 00:45:44;;;;;;;5.78;3.90;;;10.50;99.90;;;;;;2080328;28;20017;-70
2021/12/28 00:46:45;;;;;;;5.28;3.63;;;10.50;99.90;;;;;;2080734;28;20108;-70
2021/12/28 00:47:45;;;;;;;6.25;3.90;;;10.50;99.90;;;;;;2089102;28;20122;-70
2021/12/28 00:48:46;;;;;;;5.22;3.58;;;10.50;99.90;;;;;;2088998;28;20017;-70
2021/12/28 00:49:46;;;;;;;4.93;3.60;;;10.50;99.90;;;;;;2088279;28;20087;-70
2021/12/28 00:50:49;;;;;;;5.93;3.80;;;10.50;99.90;;;;;;2088602;28;20033;-70
2021/12/28 00:51:50;;;;;;;4.72;3.40;;;10.50;99.90;;;;;;2083202;28;20033;-70
2021/12/28 00:52:50;;;;;;;3.63;3.33;;;10.50;99.90;;;;;;2080445;28;20112;-70
2021/12/28 00:53:51;;;;;;;4.80;3.63;;;10.50;99.90;;;;;;2086127;28;20032;-70
2021/12/28 00:54:52;;;;;;;6.78;3.90;;;10.50;99.90;;;;;;2088459;28;20029;-70
2021/12/28 00:55:52;;;;;;;5.45;3.55;;;10.50;99.90;;;;;;2082498;28;20053;-71
2021/12/28 00:56:53;;;;;;;8.30;3.80;;;10.50;99.90;;;;;;2091504;28;20024;-71
2021/12/28 00:57:54;;;;;;;5.20;4.07;;;10.50;99.90;;;;;;2096400;28;20028;-70
2021/12/28 00:58:54;;;;;;;3.88;3.33;;;10.50;99.90;;;;;;2088533;28;20067;-70
2021/12/28 00:59:55;;;;;;;4.93;3.47;;;10.50;99.90;;;;;;2087065;28;20120;-70
2021/12/28 01:00:56;;;;;;;5.40;3.65;;;10.50;99.90;;;;;;2088621;28;20025;-70
2021/12/28 01:01:56;;;;;;;6.13;3.78;;;10.50;99.90;;;;;;2088800;28;20021;-70
2021/12/28 01:02:59;;;;;;;5.22;3.30;;;10.50;99.90;;;;;;2088360;28;20487;-70
2021/12/28 01:04:00;;;;;;;3.75;3.35;;;10.50;99.90;;;;;;2088785;28;20031;-70
2021/12/28 01:05:00;;;;;;;5.45;3.72;;;10.40;99.90;;;;;;2088560;28;20042;-70
2021/12/28 01:06:02;;;;;;;5.90;3.42;;;10.40;99.90;;;;;;2080606;28;20108;-70
2021/12/28 01:07:03;;;;;;;8.13;3.92;;;10.40;99.90;;;;;;2084682;28;20025;-70
2021/12/28 01:08:04;;;;;;;3.70;3.30;;;10.40;99.90;;;;;;2080131;28;20068;-70
2021/12/28 01:09:05;;;;;;;7.80;3.97;;;10.40;99.90;;;;;;2080416;28;20057;-70
2021/12/28 01:10:10;;;;;;;4.22;3.60;;;10.40;99.90;;;;;;2080049;28;20440;-70
2021/12/28 01:11:11;;;;;;;3.92;3.42;;;10.40;99.90;;;;;;2081454;28;20056;-70
2021/12/28 01:12:12;;;;;;;4.10;3.45;;;10.30;99.90;;;;;;2088054;28;20111;-70
2021/12/28 01:13:13;;;;;;;5.22;3.80;;;10.30;99.90;;;;;;2087621;28;20036;-70
2021/12/28 01:14:14;;;;;;;7.00;3.50;;;10.40;99.90;;;;;;2088769;28;20025;-70
2021/12/28 01:15:14;;;;;;;3.95;3.33;;;10.30;99.90;;;;;;2088526;28;20373;-70
2021/12/28 01:16:15;;;;;;;8.50;3.80;;;10.30;99.90;;;;;;2082204;28;20453;-70
2021/12/28 01:17:16;;;;;;;9.15;4.10;;;10.30;99.90;;;;;;2080194;28;20033;-71
2021/12/28 01:18:16;;;;;;;8.50;4.03;;;10.30;99.90;;;;;;2079947;28;20067;-70
2021/12/28 01:19:17;;;;;;;5.38;3.85;;;10.30;99.90;;;;;;2079982;28;20033;-70
2021/12/28 01:20:18;;;;;;;4.47;3.42;;;10.30;99.90;;;;;;2079718;28;20045;-70
2021/12/28 01:21:19;;;;;;;6.18;3.78;;;10.30;99.90;;;;;;2080013;28;20021;-70
2021/12/28 01:22:19;;;;;;;5.50;3.42;;;10.30;99.90;;;;;;2080030;28;20504;-70
2021/12/28 01:23:20;;;;;;;3.97;3.17;;;10.20;99.90;;;;;;2079879;28;20763;-70
2021/12/28 01:24:21;;;;;;;4.97;3.55;;;10.20;99.90;;;;;;2080252;28;20036;-71
2021/12/28 01:25:22;;;;;;;5.78;3.47;;;10.20;99.90;;;;;;2080389;28;20053;-70
2021/12/28 01:26:22;;;;;;;3.83;3.33;;;10.20;99.90;;;;;;2080177;28;20033;-71
2021/12/28 01:27:23;;;;;;;4.03;3.42;;;10.20;99.90;;;;;;2080309;28;20105;-71
2021/12/28 01:28:23;;;;;;;7.45;3.60;;;10.10;99.90;;;;;;2080110;28;20377;-70
2021/12/28 01:29:24;;;;;;;4.80;3.53;;;10.20;99.90;;;;;;2079999;28;20056;-70
2021/12/28 01:30:26;;;;;;;10.77;4.20;;;10.10;99.90;;;;;;2079650;28;20038;-70
2021/12/28 01:31:27;;;;;;;6.75;3.58;;;10.10;99.90;;;;;;2088010;28;20462;-70
2021/12/28 01:32:28;;;;;;;7.63;4.07;;;10.10;99.90;;;;;;2084762;28;20415;-70
2021/12/28 01:33:28;;;;;;;5.22;3.70;;;10.10;99.90;;;;;;2072061;28;20026;-70
2021/12/28 01:34:29;;;;;;;5.32;3.53;;;10.10;99.90;;;;;;2078472;28;20033;-70
2021/12/28 01:35:31;;;;;;;5.47;3.72;;;10.10;99.90;;;;;;2080239;28;20021;-70
2021/12/28 01:36:31;;;;;;;7.13;3.95;;;10.10;99.90;;;;;;2080164;28;20473;-70
2021/12/28 01:37:32;;;;;;;6.07;3.58;;;10.10;99.90;;;;;;2079728;28;20359;-70
2021/12/28 01:38:33;;;;;;;6.07;4.00;;;10.00;99.90;;;;;;2080051;28;20040;-70
2021/12/28 01:39:34;;;;;;;6.07;3.60;;;10.00;99.90;;;;;;2088637;28;20025;-70
2021/12/28 01:40:38;;;;;;;6.07;3.80;;;10.10;99.90;;;;;;2095369;28;20116;-70
2021/12/28 01:41:39;;;;;;;7.53;3.60;;;10.00;99.90;;;;;;2095698;28;20048;-70
2021/12/28 01:43:00;;;;;;;4.90;3.00;;;10.00;99.90;;;;;;2087473;28;20041;-70
2021/12/28 01:44:05;;;;;;;7.55;3.55;;;9.90;99.90;;;;;;2080295;28;22123;-70
2021/12/28 01:45:07;;;;;;;9.93;3.90;;;10.00;99.90;;;;;;2079089;28;20032;-70
2021/12/28 01:46:08;;;;;;;10.88;3.97;;;10.00;99.90;;;;;;2077931;28;20052;-70
2021/12/28 01:47:08;;;;;;;7.57;3.42;;;9.90;99.90;;;;;;2083853;28;20025;-71
2021/12/28 01:48:11;;;;;;;8.15;3.30;;;9.90;99.90;;;;;;2086072;28;20639;-70
2021/12/28 01:49:12;;;;;;;9.80;3.50;;;9.90;99.90;;;;;;2079458;28;20025;-71
2021/12/28 01:50:13;;;;;;;9.27;3.90;;;9.90;99.90;;;;;;2079521;28;20021;-70
2021/12/28 01:51:19;;;;;;;7.82;3.35;;;9.90;99.90;;;;;;2079760;28;20032;-71
2021/12/28 01:52:20;;;;;;;7.05;3.28;;;9.90;99.90;;;;;;2085598;28;20029;-70
2021/12/28 01:53:21;;;;;;;7.88;3.58;;;9.90;99.90;;;;;;2072681;28;20029;-70
2021/12/28 01:54:22;;;;;;;7.13;3.33;;;9.90;99.90;;;;;;2080050;28;20366;-70
2021/12/28 01:55:23;;;;;;;10.82;4.00;;;9.90;99.90;;;;;;2080193;28;20176;-70
2021/12/28 01:56:28;;;;;;;11.38;3.88;;;9.90;99.90;;;;;;2080090;28;20409;-70
2021/12/28 01:57:28;;;;;;;6.78;2.85;;;9.90;99.90;;;;;;2074921;28;20119;-71
2021/12/28 01:58:29;;;;;;;9.50;3.97;;;9.90;99.90;;;;;;2080216;28;20040;-71
2021/12/28 01:59:30;;;;;;;7.40;3.60;;;9.80;99.90;;;;;;2079490;28;20025;-71
2021/12/28 02:00:31;;;;;;;9.50;3.90;;;9.80;99.90;;;;;;2079547;28;20025;-70
2021/12/28 02:01:32;;;;;;;9.77;3.33;;;9.80;99.90;;;;;;2077412;28;20080;-70
2021/12/28 02:02:33;;;;;;;9.88;3.67;;;9.80;99.90;;;;;;2088232;28;20483;-70
2021/12/28 02:03:36;;;;;;;7.25;3.80;;;9.80;99.90;;;;;;2087744;28;20025;-71
2021/12/28 02:04:36;;;;;;;8.95;3.78;;;9.80;99.90;;;;;;2088511;28;20099;-71
2021/12/28 02:05:40;;;;;;;9.95;3.47;;;9.80;99.90;;;;;;2078537;28;20045;-70
2021/12/28 02:06:41;;;;;;;6.60;2.83;;;9.80;99.90;;;;;;2082826;28;20021;-70
2021/12/28 02:07:42;;;;;;;5.95;3.20;;;9.80;99.90;;;;;;2078242;28;20545;-70
2021/12/28 02:08:43;;;;;;;9.93;4.00;;;9.80;99.90;;;;;;2079168;28;20031;-70
2021/12/28 02:09:44;;;;;;;7.75;3.17;;;9.80;99.90;;;;;;2079690;28;20049;-70
2021/12/28 02:10:46;;;;;;;10.20;3.63;;;9.80;99.90;;;;;;2079344;28;20032;-70
2021/12/28 02:11:47;;;;;;;9.23;3.72;;;9.80;99.90;;;;;;2085274;28;20025;-70
2021/12/28 02:12:51;;;;;;;9.60;3.42;;;9.80;99.90;;;;;;2079578;28;20044;-71
2021/12/28 02:13:51;;;;;;;9.35;3.60;;;9.80;99.90;;;;;;2073566;28;20022;-71
2021/12/28 02:14:52;;;;;;;10.32;3.60;;;9.80;99.90;;;;;;2082339;28;20028;-71
2021/12/28 02:15:53;;;;;;;10.30;4.00;;;9.80;99.90;;;;;;2081613;28;20024;-72
2021/12/28 02:16:54;;;;;;;11.15;3.72;;;9.80;99.90;;;;;;2095429;28;20053;-71
2021/12/28 02:17:54;;;;;;;12.60;3.95;;;9.80;99.90;;;;;;2095375;28;20105;-71
2021/12/28 02:18:55;;;;;;;10.15;3.63;;;9.80;99.90;;;;;;2075347;28;20026;-70
2021/12/28 02:19:55;;;;;;;8.77;3.45;;;9.80;99.90;;;;;;2072541;28;20112;-71
2021/12/28 02:20:58;;;;;;;7.97;3.58;;;9.80;99.90;;;;;;2080729;28;20028;-71
2021/12/28 02:21:59;;;;;;;9.55;3.22;;;9.80;99.90;;;;;;2086643;28;20112;-71
2021/12/28 02:22:59;;;;;;;14.13;3.88;;;9.70;99.90;;;;;;2089636;28;20059;-70
2021/12/28 02:24:02;;;;;;;9.90;3.75;;;9.80;99.90;;;;;;2086010;28;20036;-70
2021/12/28 02:25:04;;;;;;;7.80;3.65;;;9.80;99.90;;;;;;2072038;28;20496;-70
2021/12/28 02:26:05;;;;;;;8.57;3.20;;;9.80;99.90;;;;;;2079293;28;20047;-71
2021/12/28 02:27:05;;;;;;;15.13;3.97;;;9.80;99.90;;;;;;2082416;28;20462;-71
2021/12/28 02:28:08;;;;;;;13.43;3.95;;;9.80;99.90;;;;;;2079952;28;20026;-71
2021/12/28 02:29:08;;;;;;;9.50;3.28;;;9.80;99.90;;;;;;2073562;28;20080;-71
2021/12/28 02:30:13;;;;;;;12.40;3.88;;;9.70;99.90;;;;;;2078592;28;20103;-71
2021/12/28 02:31:13;;;;;;;11.15;3.38;;;9.80;99.90;;;;;;2084985;28;20563;-71
2021/12/28 02:32:14;;;;;;;16.45;3.70;;;9.80;99.90;;;;;;2087919;28;20427;-71
2021/12/28 02:33:17;;;;;;;7.43;3.10;;;9.80;99.90;;;;;;2088152;28;20037;-71
2021/12/28 02:34:20;;;;;;;9.57;3.58;;;9.80;99.90;;;;;;2087628;28;20420;-70
2021/12/28 02:35:23;;;;;;;16.35;3.83;;;9.80;99.90;;;;;;2088072;28;20063;-71
2021/12/28 02:36:25;;;;;;;12.95;3.50;;;9.80;99.90;;;;;;2083639;28;20044;-71
2021/12/28 02:37:26;;;;;;;10.40;4.05;;;9.70;99.90;;;;;;2075291;28;20622;-71
2021/12/28 02:38:27;;;;;;;11.63;3.50;;;9.80;99.90;;;;;;2079424;28;20546;-71
2021/12/28 02:39:28;;;;;;;9.85;3.65;;;9.80;99.90;;;;;;2079246;28;20411;-71
2021/12/28 02:40:31;;;;;;;15.75;4.47;;;9.80;99.90;;;;;;2079035;28;20053;-71
2021/12/28 02:41:31;;;;;;;12.82;4.00;;;9.80;99.90;;;;;;2079973;28;20032;-70
2021/12/28 02:42:32;;;;;;;11.63;3.78;;;9.80;99.90;;;;;;2079474;28;20061;-70
2021/12/28 02:43:33;;;;;;;12.55;4.20;;;9.80;99.90;;;;;;2079088;28;20018;-70
2021/12/28 02:44:33;;;;;;;9.55;3.50;;;9.80;99.90;;;;;;2079648;28;20021;-70
2021/12/28 02:45:55;;;;;;;10.82;3.75;;;9.80;99.90;;;;;;2079735;28;20408;-71
2021/12/28 02:46:56;;;;;;;11.77;3.60;;;9.80;99.90;;;;;;2079497;28;20024;-71
2021/12/28 02:47:57;;;;;;;12.60;4.32;;;9.80;99.90;;;;;;2079652;28;20037;-70
2021/12/28 02:48:57;;;;;;;9.30;3.72;;;9.80;99.90;;;;;;2084903;28;20103;-70
2021/12/28 02:49:58;;;;;;;16.77;4.15;;;9.80;99.90;;;;;;2087427;28;20040;-70
2021/12/28 02:51:08;;;;;;;12.23;4.07;;;9.80;99.90;;;;;;2087298;28;20021;-70
2021/12/28 02:52:09;;;;;;;19.42;4.28;;;9.80;99.90;;;;;;2085636;28;20083;-70
2021/12/28 02:53:11;;;;;;;13.52;4.05;;;9.80;99.90;;;;;;2073727;28;20038;-70
2021/12/28 02:54:11;;;;;;;10.45;3.75;;;9.80;99.90;;;;;;2072777;28;20022;-71
2021/12/28 02:55:15;;;;;;;10.43;3.90;;;9.90;99.90;;;;;;2082087;28;20083;-70
2021/12/28 02:56:18;;;;;;;14.00;4.10;;;9.90;99.90;;;;;;2086605;28;20115;-71
2021/12/28 02:57:19;;;;;;;14.18;4.20;;;9.90;99.90;;;;;;2086238;28;20021;-70
2021/12/28 02:58:40;;;;;;;14.15;4.28;;;9.90;99.90;;;;;;2095581;28;20024;-71
2021/12/28 02:59:49;;;;;;;14.18;4.45;;;9.90;99.90;;;;;;2087922;28;20021;-70
2021/12/28 03:01:06;;;;;;;12.63;3.97;;;9.90;99.90;;;;;;2087823;28;20712;-70
2021/12/28 03:02:07;;;;;;;12.07;3.55;;;9.90;99.90;;;;;;2089165;28;20074;-70
2021/12/28 03:03:19;;;;;;;14.07;4.15;;;9.80;99.90;;;;;;2087355;28;20033;-71
2021/12/28 03:04:23;;;;;;;15.05;4.30;;;9.90;99.90;;;;;;2089123;28;20047;-71
2021/12/28 03:05:24;;;;;;;12.10;3.83;;;9.90;99.90;;;;;;2086352;28;20021;-70
2021/12/28 03:06:24;;;;;;;12.77;3.60;;;9.90;99.90;;;;;;2082584;28;20021;-70
2021/12/28 03:07:29;;;;;;;15.10;4.30;;;9.90;99.90;;;;;;2076772;28;20058;-70
2021/12/28 03:08:33;;;;;;;9.93;4.00;;;9.90;99.90;;;;;;2078655;28;20022;-70
2021/12/28 03:09:33;;;;;;;13.52;3.75;;;9.90;99.90;;;;;;2080386;28;20080;-70
2021/12/28 03:10:36;;;;;;;14.32;4.00;;;10.00;99.90;;;;;;2080398;28;20030;-70
2021/12/28 03:11:36;;;;;;;19.00;4.13;;;10.00;99.90;;;;;;2085544;28;20024;-70
2021/12/28 03:12:37;;;;;;;19.23;4.80;;;9.90;99.90;;;;;;2089148;28;20059;-70
2021/12/28 03:13:45;;;;;;;14.50;3.83;;;10.00;99.90;;;;;;2088303;28;20025;-71
2021/12/28 03:14:48;;;;;;;11.40;4.05;;;10.00;99.90;;;;;;2088619;28;20020;-71
2021/12/28 03:15:49;;;;;;;13.00;4.07;;;10.00;99.90;;;;;;2088744;28;20032;-71
2021/12/28 03:16:50;;;;;;;13.32;4.53;;;10.00;99.90;;;;;;2083336;28;20638;-70
2021/12/28 03:17:51;;;;;;;12.43;3.97;;;10.00;99.90;;;;;;2080813;28;20134;-70
2021/12/28 03:18:51;;;;;;;13.75;3.80;;;10.00;99.90;;;;;;2080929;28;20104;-71
2021/12/28 03:19:52;;;;;;;18.80;4.55;;;10.00;99.90;;;;;;2080536;28;20030;-70
2021/12/28 03:20:53;;;;;;;14.85;4.40;;;10.00;99.90;;;;;;2080877;28;20045;-70
2021/12/28 03:21:53;;;;;;;14.50;4.38;;;10.00;99.90;;;;;;2089022;28;20013;-70
2021/12/28 03:22:54;;;;;;;20.83;4.63;;;10.00;99.90;;;;;;2089082;28;20071;-70
2021/12/28 03:23:55;;;;;;;16.00;3.97;;;10.00;99.90;;;;;;2088971;28;20035;-70
2021/12/28 03:24:55;;;;;;;15.10;4.28;;;10.00;99.90;;;;;;2088961;28;20036;-70
2021/12/28 03:25:56;;;;;;;11.82;3.92;;;10.00;99.90;;;;;;2088856;28;20449;-70
2021/12/28 03:26:58;;;;;;;13.43;4.13;;;10.00;99.90;;;;;;2088947;28;20047;-71
2021/12/28 03:28:00;;;;;;;14.98;3.67;;;10.00;99.90;;;;;;2079706;28;20025;-71
2021/12/28 03:29:01;;;;;;;13.70;3.85;;;10.10;99.90;;;;;;2081040;28;20084;-71
2021/12/28 03:30:05;;;;;;;21.20;4.90;;;10.00;99.90;;;;;;2087788;28;20037;-71
2021/12/28 03:31:08;;;;;;;16.80;4.07;;;10.00;99.90;;;;;;2080528;28;20044;-71
2021/12/28 03:32:08;;;;;;;14.10;4.10;;;10.00;99.90;;;;;;2080208;28;20095;-70
2021/12/28 03:33:09;;;;;;;19.60;4.47;;;10.00;99.90;;;;;;2088480;28;20044;-70
2021/12/28 03:34:09;;;;;;;18.65;5.00;;;10.00;99.90;;;;;;2086385;28;20033;-70
2021/12/28 03:35:12;;;;;;;17.35;4.47;;;10.00;99.90;;;;;;2080310;28;20046;-70
2021/12/28 03:36:14;;;;;;;13.43;4.20;;;10.00;99.90;;;;;;2080637;28;20029;-71
2021/12/28 03:37:15;;;;;;;21.48;4.50;;;10.00;99.90;;;;;;2080948;28;20055;-71
2021/12/28 03:38:17;;;;;;;18.17;4.63;;;10.00;99.90;;;;;;2080618;28;20032;-71
2021/12/28 03:39:17;;;;;;;11.40;3.70;;;10.00;99.90;;;;;;2080676;28;20022;-71
2021/12/28 03:40:18;;;;;;;15.48;4.05;;;10.00;99.90;;;;;;2079832;28;20029;-70
2021/12/28 03:41:21;;;;;;;14.13;4.70;;;10.00;99.90;;;;;;2080933;28;20044;-70
2021/12/28 03:42:21;;;;;;;16.50;4.10;;;10.00;99.90;;;;;;2080532;28;20408;-70
2021/12/28 03:43:22;;;;;;;18.85;4.43;;;10.00;99.90;;;;;;2080509;28;20072;-70
2021/12/28 03:44:23;;;;;;;15.70;3.90;;;10.00;99.90;;;;;;2079884;28;20025;-70
2021/12/28 03:45:24;;;;;;;15.18;4.10;;;10.00;99.90;;;;;;2080268;28;20095;-70
2021/12/28 03:46:26;;;;;;;14.20;4.38;;;10.00;99.90;;;;;;2080094;28;20638;-70
2021/12/28 03:47:26;;;;;;;16.90;4.60;;;10.00;99.90;;;;;;2086394;28;20070;-70
2021/12/28 03:48:27;;;;;;;18.35;5.40;;;10.00;99.90;;;;;;2082221;28;20021;-70
2021/12/28 03:49:27;;;;;;;16.70;4.40;;;10.00;99.90;;;;;;2080699;28;20057;-71
2021/12/28 03:50:28;;;;;;;21.13;4.68;;;10.00;99.90;;;;;;2080218;28;20026;-70
2021/12/28 03:51:29;;;;;;;16.83;4.00;;;10.00;99.90;;;;;;2080506;28;20044;-70
2021/12/28 03:52:29;;;;;;;20.25;4.35;;;10.10;99.90;;;;;;2077049;28;20022;-70
2021/12/28 03:53:30;;;;;;;22.25;5.03;;;10.10;99.90;;;;;;2077094;28;20030;-70
2021/12/28 03:54:30;;;;;;;14.00;3.70;;;10.10;99.90;;;;;;2088909;28;20470;-70
2021/12/28 03:55:31;;;;;;;24.02;5.28;;;10.10;99.90;;;;;;2085980;28;20018;-70
2021/12/28 03:56:32;;;;;;;19.50;4.78;;;10.10;99.90;;;;;;2090226;28;20108;-70
2021/12/28 03:57:33;;;;;;;18.88;4.78;;;10.10;99.90;;;;;;2098033;28;20028;-70
2021/12/28 03:58:35;;;;;;;16.10;3.80;;;10.10;99.90;;;;;;2090395;28;20056;-70
2021/12/28 03:59:35;;;;;;;22.00;4.88;;;10.10;99.90;;;;;;2090410;28;20033;-70
2021/12/28 04:00:41;;;;;;;21.15;4.45;;;10.10;99.90;;;;;;2089395;28;20032;-70
2021/12/28 04:01:42;;;;;;;19.33;4.85;;;10.10;99.90;;;;;;2085547;28;20036;-70
2021/12/28 04:02:43;;;;;;;16.52;4.65;;;10.10;99.90;;;;;;2073159;28;20496;-71
2021/12/28 04:03:44;;;;;;;15.93;4.60;;;10.10;99.90;;;;;;2079065;28;20079;-71
2021/12/28 04:04:44;;;;;;;17.50;3.78;;;10.10;99.90;;;;;;2081529;28;20097;-70
2021/12/28 04:05:45;;;;;;;16.33;5.05;;;10.10;99.90;;;;;;2082423;28;20033;-70
2021/12/28 04:06:46;;;;;;;23.13;4.93;;;10.20;99.90;;;;;;2081669;28;20013;-70
2021/12/28 04:07:48;;;;;;;18.45;4.50;;;10.10;99.90;;;;;;2081048;28;20033;-70
2021/12/28 04:08:49;;;;;;;15.90;5.38;;;10.20;99.90;;;;;;2089018;28;20469;-70
2021/12/28 04:11:02;;;;;;;23.60;5.80;;;10.20;99.90;;;;;;2080421;28;20108;-70
2021/12/28 04:12:03;;;;;;;18.83;4.50;;;10.20;99.90;;;;;;2081010;28;20113;-70
2021/12/28 04:13:04;;;;;;;19.50;4.47;;;10.20;99.90;;;;;;2080232;28;20659;-70
2021/12/28 04:14:07;;;;;;;20.35;4.85;;;10.20;99.90;;;;;;2080687;28;20124;-70
2021/12/28 04:15:12;;;;;;;20.50;5.00;;;10.20;99.90;;;;;;2079318;28;20025;-70
2021/12/28 04:16:14;;;;;;;17.88;4.65;;;10.20;99.90;;;;;;2074902;28;20056;-70
2021/12/28 04:17:14;;;;;;;19.35;4.68;;;10.20;99.90;;;;;;2080692;28;20033;-70
2021/12/28 04:18:16;;;;;;;22.00;5.18;;;10.20;99.90;;;;;;2080627;28;20030;-70
2021/12/28 04:19:17;;;;;;;23.30;5.10;;;10.20;99.90;;;;;;2080573;28;20070;-70
2021/12/28 04:20:19;;;;;;;24.30;4.72;;;10.20;99.90;;;;;;2079579;28;20037;-70
2021/12/28 04:21:21;;;;;;;19.63;4.50;;;10.20;99.90;;;;;;2080167;28;20543;-70
2021/12/28 04:22:21;;;;;;;17.63;3.97;;;10.20;99.90;;;;;;2080007;28;20523;-70
2021/12/28 04:23:22;;;;;;;21.63;4.70;;;10.20;99.90;;;;;;2088080;28;20025;-70
2021/12/28 04:24:23;;;;;;;19.33;4.72;;;10.20;99.90;;;;;;2088983;28;20025;-70
2021/12/28 04:25:24;;;;;;;16.35;3.97;;;10.20;99.90;;;;;;2089095;28;20059;-70
2021/12/28 04:26:26;;;;;;;22.15;5.07;;;10.20;99.90;;;;;;2088607;28;20028;-70
2021/12/28 04:27:27;;;;;;;20.77;5.07;;;10.20;99.90;;;;;;2088166;28;20062;-71
2021/12/28 04:28:28;;;;;;;23.27;5.15;;;10.30;99.90;;;;;;2072686;28;20041;-70
2021/12/28 04:29:28;;;;;;;20.30;5.10;;;10.20;99.90;;;;;;2079567;28;20017;-70
2021/12/28 04:30:29;;;;;;;23.40;4.82;;;10.20;99.90;;;;;;2077080;28;20026;-70
2021/12/28 04:31:29;;;;;;;19.88;4.68;;;10.20;99.90;;;;;;2080383;28;20021;-70
2021/12/28 04:32:30;;;;;;;24.33;4.43;;;10.30;99.90;;;;;;2083410;28;20029;-70
2021/12/28 04:33:30;;;;;;;20.75;4.18;;;10.30;99.90;;;;;;2088996;28;20028;-70
2021/12/28 04:34:31;;;;;;;20.55;4.72;;;10.30;99.90;;;;;;2088641;28;20036;-70
2021/12/28 04:35:32;;;;;;;18.33;5.05;;;10.20;99.90;;;;;;2088883;28;20025;-70
2021/12/28 04:36:33;;;;;;;20.38;5.65;;;10.30;99.90;;;;;;2088526;28;20028;-71
2021/12/28 04:37:34;;;;;;;17.67;4.65;;;10.30;99.90;;;;;;2089021;28;20029;-71
2021/12/28 04:38:35;;;;;;;21.45;4.93;;;10.30;99.90;;;;;;2088837;28;20519;-70
2021/12/28 04:39:36;;;;;;;19.70;4.90;;;10.30;99.90;;;;;;2082830;28;20397;-70
2021/12/28 04:40:37;;;;;;;21.35;4.47;;;10.30;99.90;;;;;;2083131;28;20056;-70
2021/12/28 04:41:38;;;;;;;14.50;4.38;;;10.30;99.90;;;;;;2096371;28;20500;-70
2021/12/28 04:42:40;;;;;;;19.65;5.07;;;10.30;99.90;;;;;;2091078;28;20160;-70
2021/12/28 04:43:41;;;;;;;25.10;5.63;;;10.30;99.90;;;;;;2080705;28;20041;-70
2021/12/28 04:44:42;;;;;;;20.20;4.63;;;10.30;99.90;;;;;;2080164;28;20026;-70
2021/12/28 04:45:42;;;;;;;24.73;5.18;;;10.40;99.90;;;;;;2080649;28;20473;-71
2021/12/28 04:46:43;;;;;;;19.92;4.60;;;10.40;99.90;;;;;;2080609;28;20028;-71
2021/12/28 04:47:44;;;;;;;21.42;4.85;;;10.30;99.90;;;;;;2080520;28;20061;-71
2021/12/28 04:48:44;;;;;;;19.75;4.30;;;10.30;99.90;;;;;;2080596;28;20093;-71
2021/12/28 04:49:46;;;;;;;21.40;4.50;;;10.30;99.90;;;;;;2080108;28;20068;-70
2021/12/28 04:50:47;;;;;;;22.95;4.95;;;10.30;99.90;;;;;;2080222;28;20022;-70
2021/12/28 04:51:48;;;;;;;21.55;4.78;;;10.30;99.90;;;;;;2080501;28;20095;-71
2021/12/28 04:52:49;;;;;;;16.75;4.90;;;10.40;99.90;;;;;;2074202;28;20040;-70
2021/12/28 04:53:53;;;;;;;24.27;5.47;;;10.30;99.90;;;;;;2082040;28;20013;-70
2021/12/28 04:54:54;;;;;;;19.13;4.88;;;10.40;99.90;;;;;;2088311;28;20124;-70
2021/12/28 04:55:54;;;;;;;20.92;5.30;;;10.40;99.90;;;;;;2081010;28;20036;-70
2021/12/28 04:56:55;;;;;;;22.55;5.53;;;10.40;99.90;;;;;;2080561;28;20397;-71
2021/12/28 04:57:55;;;;;;;22.35;4.32;;;10.40;99.90;;;;;;2080467;28;20022;-71
2021/12/28 04:58:56;;;;;;;20.33;4.13;;;10.40;99.90;;;;;;2087479;28;20032;-70
2021/12/28 04:59:57;;;;;;;19.25;4.70;;;10.40;99.90;;;;;;2088401;28;20029;-70
2021/12/28 05:00:57;;;;;;;22.55;5.43;;;10.40;99.90;;;;;;2088261;28;20482;-71
2021/12/28 05:01:58;;;;;;;19.38;5.25;;;10.40;99.90;;;;;;2088716;28;20507;-70
2021/12/28 05:02:59;;;;;;;23.65;5.75;;;10.40;99.90;;;;;;2087530;28;20468;-70
2021/12/28 05:03:59;;;;;;;16.90;4.95;;;10.40;99.90;;;;;;2088268;28;20096;-70
2021/12/28 05:05:00;;;;;;;20.60;4.28;;;10.40;99.90;;;;;;2088680;28;20124;-71
2021/12/28 05:06:00;;;;;;;18.17;4.78;;;10.40;99.90;;;;;;2080572;28;20025;-71
2021/12/28 05:07:01;;;;;;;19.30;4.65;;;10.40;99.90;;;;;;2084192;28;20100;-70
2021/12/28 05:08:05;;;;;;;19.33;5.10;;;10.50;99.90;;;;;;2074735;28;20477;-71
2021/12/28 05:09:10;;;;;;;18.15;4.32;;;10.50;99.90;;;;;;2080712;28;20083;-71
2021/12/28 05:10:10;;;;;;;19.35;4.82;;;10.40;99.90;;;;;;2079685;28;20037;-71
2021/12/28 05:11:11;;;;;;;16.63;4.68;;;10.40;99.90;;;;;;2080467;28;20029;-71
2021/12/28 05:12:12;;;;;;;17.10;4.63;;;10.40;99.90;;;;;;2080011;28;20037;-71
2021/12/28 05:13:12;;;;;;;19.33;4.13;;;10.40;99.90;;;;;;2080416;28;20127;-71
2021/12/28 05:14:15;;;;;;;17.52;4.43;;;10.40;99.90;;;;;;2080251;28;20525;-71
2021/12/28 05:15:18;;;;;;;19.13;4.38;;;10.40;99.90;;;;;;2080601;28;20021;-71
2021/12/28 05:16:18;;;;;;;20.60;4.18;;;10.40;99.90;;;;;;2080100;28;20040;-70
2021/12/28 05:17:19;;;;;;;19.30;4.57;;;10.40;99.90;;;;;;2080427;28;20064;-70
2021/12/28 05:18:20;;;;;;;19.27;4.32;;;10.40;99.90;;;;;;2079942;28;20082;-71
2021/12/28 05:19:21;;;;;;;20.02;5.60;;;10.40;99.90;;;;;;2080102;28;20064;-71
2021/12/28 05:20:21;;;;;;;19.00;4.47;;;10.40;99.90;;;;;;2079451;28;20052;-71
2021/12/28 05:21:22;;;;;;;18.92;4.80;;;10.40;99.90;;;;;;2080402;28;20524;-71